sensor_id;sensor_type;location;lat;lon;timestamp;temperature;humidity
11764;DHT22;5939;56.522;14.950;2022-10-26T00:02:22;12.30;99.90
11764;DHT22;5939;56.522;14.950;2022-10-26T00:04:47;12.30;99.90
11764;DHT22;5939;56.522;14.950;2022-10-26T00:07:13;12.30;99.90
11764;DHT22;5939;56.522;14.950;2022-10-26T00:09:38;12.30;99.90
11764;DHT22;5939;56.522;14.950;2022-10-26T00:12:04;12.30;99.90
11764;DHT22;5939;56.522;14.950;2022-10-26T00:14:30;12.30;99.90
11764;DHT22;5939;56.522;14.950;2022-10-26T00:16:56;12.30;99.90
11764;DHT22;5939;56.522;14.950;2022-10-26T00:19:21;12.30;99.90
11764;DHT22;5939;56.522;14.950;2022-10-26T00:21:47;12.30;99.90
11764;DHT22;5939;56.522;14.950;2022-10-26T00:24:13;12.30;99.90
11764;DHT22;5939;56.522;14.950;2022-10-26T00:26:39;12.30;99.90
11764;DHT22;5939;56.522;14.950;2022-10-26T00:29:06;12.20;99.90
11764;DHT22;5939;56.522;14.950;2022-10-26T00:31:31;12.20;99.90
11764;DHT22;5939;56.522;14.950;2022-10-26T00:33:57;12.20;99.90
11764;DHT22;5939;56.522;14.950;2022-10-26T00:36:24;12.20;99.90
11764;DHT22;5939;56.522;14.950;2022-10-26T00:38:54;12.20;99.90
11764;DHT22;5939;56.522;14.950;2022-10-26T00:41:27;12.20;99.90
11764;DHT22;5939;56.522;14.950;2022-10-26T00:43:54;12.20;99.90
11764;DHT22;5939;56.522;14.950;2022-10-26T00:46:35;12.20;99.90
11764;DHT22;5939;56.522;14.950;2022-10-26T00:49:07;12.20;99.90
11764;DHT22;5939;56.522;14.950;2022-10-26T00:51:41;12.20;99.90
11764;DHT22;5939;56.522;14.950;2022-10-26T00:54:12;12.20;99.90
11764;DHT22;5939;56.522;14.950;2022-10-26T00:56:40;12.20;99.90
11764;DHT22;5939;56.522;14.950;2022-10-26T00:59:09;12.20;99.90
11764;DHT22;5939;56.522;14.950;2022-10-26T01:01:37;12.20;99.90
11764;DHT22;5939;56.522;14.950;2022-10-26T01:04:04;12.20;99.90
11764;DHT22;5939;56.522;14.950;2022-10-26T01:06:31;12.20;99.90
11764;DHT22;5939;56.522;14.950;2022-10-26T01:08:57;12.20;99.90
11764;DHT22;5939;56.522;14.950;2022-10-26T01:11:23;12.20;99.90
11764;DHT22;5939;56.522;14.950;2022-10-26T01:13:50;12.10;99.90
11764;DHT22;5939;56.522;14.950;2022-10-26T01:22:13;12.10;99.90
11764;DHT22;5939;56.522;14.950;2022-10-26T01:25:11;12.10;99.90
11764;DHT22;5939;56.522;14.950;2022-10-26T01:27:39;12.10;99.90
11764;DHT22;5939;56.522;14.950;2022-10-26T01:33:08;12.10;99.90
11764;DHT22;5939;56.522;14.950;2022-10-26T01:35:45;12.10;99.90
11764;DHT22;5939;56.522;14.950;2022-10-26T01:41:11;12.10;99.90
11764;DHT22;5939;56.522;14.950;2022-10-26T01:43:42;12.10;99.90
11764;DHT22;5939;56.522;14.950;2022-10-26T01:46:10;12.10;99.90
11764;DHT22;5939;56.522;14.950;2022-10-26T01:48:39;12.10;99.90
11764;DHT22;5939;56.522;14.950;2022-10-26T01:51:06;12.00;99.90
11764;DHT22;5939;56.522;14.950;2022-10-26T01:53:33;12.10;99.90
11764;DHT22;5939;56.522;14.950;2022-10-26T01:56:00;12.00;99.90
11764;DHT22;5939;56.522;14.950;2022-10-26T01:58:53;12.00;99.90
11764;DHT22;5939;56.522;14.950;2022-10-26T02:04:34;12.00;99.90
11764;DHT22;5939;56.522;14.950;2022-10-26T02:09:49;12.00;99.90
11764;DHT22;5939;56.522;14.950;2022-10-26T02:15:13;12.00;99.90
11764;DHT22;5939;56.522;14.950;2022-10-26T02:17:51;12.00;99.90
11764;DHT22;5939;56.522;14.950;2022-10-26T02:20:25;12.00;99.90
11764;DHT22;5939;56.522;14.950;2022-10-26T02:22:54;12.00;99.90
11764;DHT22;5939;56.522;14.950;2022-10-26T02:25:23;12.00;99.90
11764;DHT22;5939;56.522;14.950;2022-10-26T02:28:01;12.00;99.90
11764;DHT22;5939;56.522;14.950;2022-10-26T02:30:27;12.00;99.90
11764;DHT22;5939;56.522;14.950;2022-10-26T02:32:55;12.00;99.90
11764;DHT22;5939;56.522;14.950;2022-10-26T02:35:32;12.00;99.90
11764;DHT22;5939;56.522;14.950;2022-10-26T02:38:02;12.00;99.90
11764;DHT22;5939;56.522;14.950;2022-10-26T02:40:30;12.00;99.90
11764;DHT22;5939;56.522;14.950;2022-10-26T02:43:01;12.00;99.90
11764;DHT22;5939;56.522;14.950;2022-10-26T02:45:45;12.00;99.90
11764;DHT22;5939;56.522;14.950;2022-10-26T02:48:12;12.00;99.90
11764;DHT22;5939;56.522;14.950;2022-10-26T02:55:49;12.00;99.90
11764;DHT22;5939;56.522;14.950;2022-10-26T02:58:22;12.00;99.90
11764;DHT22;5939;56.522;14.950;2022-10-26T03:00:50;12.00;99.90
11764;DHT22;5939;56.522;14.950;2022-10-26T03:03:18;12.00;99.90
11764;DHT22;5939;56.522;14.950;2022-10-26T03:05:44;12.00;99.90
11764;DHT22;5939;56.522;14.950;2022-10-26T03:08:09;12.00;99.90
11764;DHT22;5939;56.522;14.950;2022-10-26T03:10:40;12.00;99.90
11764;DHT22;5939;56.522;14.950;2022-10-26T03:13:05;12.00;99.90
11764;DHT22;5939;56.522;14.950;2022-10-26T03:15:31;12.00;99.90
11764;DHT22;5939;56.522;14.950;2022-10-26T03:17:56;12.00;99.90
11764;DHT22;5939;56.522;14.950;2022-10-26T03:20:22;12.00;99.90
11764;DHT22;5939;56.522;14.950;2022-10-26T03:22:48;12.00;99.90
11764;DHT22;5939;56.522;14.950;2022-10-26T03:25:14;12.00;99.90
11764;DHT22;5939;56.522;14.950;2022-10-26T03:27:43;12.00;99.90
11764;DHT22;5939;56.522;14.950;2022-10-26T03:30:09;12.00;99.90
11764;DHT22;5939;56.522;14.950;2022-10-26T03:32:35;12.00;99.90
11764;DHT22;5939;56.522;14.950;2022-10-26T03:35:00;12.00;99.90
11764;DHT22;5939;56.522;14.950;2022-10-26T03:37:26;12.00;99.90
11764;DHT22;5939;56.522;14.950;2022-10-26T03:39:52;12.00;99.90
11764;DHT22;5939;56.522;14.950;2022-10-26T03:42:17;12.00;99.90
11764;DHT22;5939;56.522;14.950;2022-10-26T03:44:43;12.00;99.90
11764;DHT22;5939;56.522;14.950;2022-10-26T03:47:09;12.00;99.90
11764;DHT22;5939;56.522;14.950;2022-10-26T03:49:34;12.00;99.90
11764;DHT22;5939;56.522;14.950;2022-10-26T03:52:00;11.90;99.90
11764;DHT22;5939;56.522;14.950;2022-10-26T03:54:26;11.90;99.90
11764;DHT22;5939;56.522;14.950;2022-10-26T03:56:52;11.90;99.90
11764;DHT22;5939;56.522;14.950;2022-10-26T03:59:18;11.90;99.90
11764;DHT22;5939;56.522;14.950;2022-10-26T04:01:43;11.90;99.90
11764;DHT22;5939;56.522;14.950;2022-10-26T04:04:09;12.00;99.90
11764;DHT22;5939;56.522;14.950;2022-10-26T04:06:35;11.90;99.90
11764;DHT22;5939;56.522;14.950;2022-10-26T04:09:00;11.90;99.90
11764;DHT22;5939;56.522;14.950;2022-10-26T04:11:30;11.90;99.90
11764;DHT22;5939;56.522;14.950;2022-10-26T04:13:56;11.90;99.90
11764;DHT22;5939;56.522;14.950;2022-10-26T04:16:24;11.90;99.90
11764;DHT22;5939;56.522;14.950;2022-10-26T04:18:50;11.90;99.90
11764;DHT22;5939;56.522;14.950;2022-10-26T04:21:15;11.90;99.90
11764;DHT22;5939;56.522;14.950;2022-10-26T04:23:41;11.90;99.90
11764;DHT22;5939;56.522;14.950;2022-10-26T04:26:07;11.90;99.90
11764;DHT22;5939;56.522;14.950;2022-10-26T04:28:33;11.90;99.90
11764;DHT22;5939;56.522;14.950;2022-10-26T04:30:58;11.90;99.90
11764;DHT22;5939;56.522;14.950;2022-10-26T04:33:24;11.90;99.90
11764;DHT22;5939;56.522;14.950;2022-10-26T04:35:49;11.90;99.90
11764;DHT22;5939;56.522;14.950;2022-10-26T04:38:15;11.90;99.90
11764;DHT22;5939;56.522;14.950;2022-10-26T04:40:41;11.90;99.90
11764;DHT22;5939;56.522;14.950;2022-10-26T04:43:06;11.90;99.90
11764;DHT22;5939;56.522;14.950;2022-10-26T04:45:32;11.90;99.90
11764;DHT22;5939;56.522;14.950;2022-10-26T04:48:06;11.90;99.90
11764;DHT22;5939;56.522;14.950;2022-10-26T04:50:32;11.90;99.90
11764;DHT22;5939;56.522;14.950;2022-10-26T04:52:58;11.90;99.90
11764;DHT22;5939;56.522;14.950;2022-10-26T04:55:24;11.90;99.90
11764;DHT22;5939;56.522;14.950;2022-10-26T04:57:50;11.90;99.90
11764;DHT22;5939;56.522;14.950;2022-10-26T05:00:16;11.90;99.90
11764;DHT22;5939;56.522;14.950;2022-10-26T05:02:41;11.90;99.90
11764;DHT22;5939;56.522;14.950;2022-10-26T05:05:07;11.90;99.90
11764;DHT22;5939;56.522;14.950;2022-10-26T05:07:33;11.90;99.90
11764;DHT22;5939;56.522;14.950;2022-10-26T05:09:58;11.90;99.90
11764;DHT22;5939;56.522;14.950;2022-10-26T05:12:24;11.90;99.90
11764;DHT22;5939;56.522;14.950;2022-10-26T05:14:50;11.90;99.90
11764;DHT22;5939;56.522;14.950;2022-10-26T05:17:15;11.90;99.90
11764;DHT22;5939;56.522;14.950;2022-10-26T05:19:41;11.90;99.90
11764;DHT22;5939;56.522;14.950;2022-10-26T05:22:07;11.90;99.90
11764;DHT22;5939;56.522;14.950;2022-10-26T05:24:32;11.90;99.90
11764;DHT22;5939;56.522;14.950;2022-10-26T05:26:58;11.90;99.90
11764;DHT22;5939;56.522;14.950;2022-10-26T05:29:24;11.90;99.90
11764;DHT22;5939;56.522;14.950;2022-10-26T05:31:50;11.90;99.90
11764;DHT22;5939;56.522;14.950;2022-10-26T05:34:16;11.90;99.90
11764;DHT22;5939;56.522;14.950;2022-10-26T05:36:41;11.90;99.90
11764;DHT22;5939;56.522;14.950;2022-10-26T05:39:07;11.90;99.90
11764;DHT22;5939;56.522;14.950;2022-10-26T05:41:33;11.90;99.90
11764;DHT22;5939;56.522;14.950;2022-10-26T05:43:58;11.90;99.90
11764;DHT22;5939;56.522;14.950;2022-10-26T05:46:24;11.90;99.90
11764;DHT22;5939;56.522;14.950;2022-10-26T05:48:50;11.90;99.90
11764;DHT22;5939;56.522;14.950;2022-10-26T05:51:15;11.90;99.90
11764;DHT22;5939;56.522;14.950;2022-10-26T05:53:41;11.90;99.90
11764;DHT22;5939;56.522;14.950;2022-10-26T05:56:19;11.80;99.90
11764;DHT22;5939;56.522;14.950;2022-10-26T05:58:48;11.90;99.90
11764;DHT22;5939;56.522;14.950;2022-10-26T06:01:34;11.80;99.90
11764;DHT22;5939;56.522;14.950;2022-10-26T06:06:38;11.90;99.90
11764;DHT22;5939;56.522;14.950;2022-10-26T06:09:04;11.90;99.90
11764;DHT22;5939;56.522;14.950;2022-10-26T06:11:30;11.80;99.90
11764;DHT22;5939;56.522;14.950;2022-10-26T06:13:56;11.80;99.90
11764;DHT22;5939;56.522;14.950;2022-10-26T06:16:49;11.80;99.90
11764;DHT22;5939;56.522;14.950;2022-10-26T06:22:13;11.80;99.90
11764;DHT22;5939;56.522;14.950;2022-10-26T06:24:54;11.80;99.90
11764;DHT22;5939;56.522;14.950;2022-10-26T06:30:05;11.80;99.90
11764;DHT22;5939;56.522;14.950;2022-10-26T06:32:43;11.80;99.90
11764;DHT22;5939;56.522;14.950;2022-10-26T06:38:14;11.80;99.90
11764;DHT22;5939;56.522;14.950;2022-10-26T06:40:42;11.80;99.90
11764;DHT22;5939;56.522;14.950;2022-10-26T06:43:34;11.80;99.90
11764;DHT22;5939;56.522;14.950;2022-10-26T06:52:04;11.80;99.90
11764;DHT22;5939;56.522;14.950;2022-10-26T06:54:44;11.80;99.90
11764;DHT22;5939;56.522;14.950;2022-10-26T06:57:13;11.80;99.90
11764;DHT22;5939;56.522;14.950;2022-10-26T06:59:43;11.80;99.90
11764;DHT22;5939;56.522;14.950;2022-10-26T07:02:13;11.80;99.90
11764;DHT22;5939;56.522;14.950;2022-10-26T07:04:40;11.80;99.90
11764;DHT22;5939;56.522;14.950;2022-10-26T07:07:08;11.80;99.90
11764;DHT22;5939;56.522;14.950;2022-10-26T07:09:34;11.80;99.90
11764;DHT22;5939;56.522;14.950;2022-10-26T07:12:00;11.80;99.90
11764;DHT22;5939;56.522;14.950;2022-10-26T07:14:26;11.80;99.90
11764;DHT22;5939;56.522;14.950;2022-10-26T07:16:51;11.80;99.90
11764;DHT22;5939;56.522;14.950;2022-10-26T07:19:18;11.80;99.90
11764;DHT22;5939;56.522;14.950;2022-10-26T07:21:44;11.80;99.90
11764;DHT22;5939;56.522;14.950;2022-10-26T07:24:10;11.80;99.90
11764;DHT22;5939;56.522;14.950;2022-10-26T07:26:35;11.80;99.90
11764;DHT22;5939;56.522;14.950;2022-10-26T07:29:01;11.80;99.90
11764;DHT22;5939;56.522;14.950;2022-10-26T07:31:27;11.80;99.90
11764;DHT22;5939;56.522;14.950;2022-10-26T07:33:53;11.80;99.90
11764;DHT22;5939;56.522;14.950;2022-10-26T07:36:19;11.80;99.90
11764;DHT22;5939;56.522;14.950;2022-10-26T07:38:44;11.80;99.90
11764;DHT22;5939;56.522;14.950;2022-10-26T07:41:10;11.80;99.90
11764;DHT22;5939;56.522;14.950;2022-10-26T07:43:35;11.80;99.90
11764;DHT22;5939;56.522;14.950;2022-10-26T07:46:01;11.80;99.90
11764;DHT22;5939;56.522;14.950;2022-10-26T07:48:27;11.80;99.90
11764;DHT22;5939;56.522;14.950;2022-10-26T07:50:52;11.80;99.90
11764;DHT22;5939;56.522;14.950;2022-10-26T07:53:18;11.80;99.90
11764;DHT22;5939;56.522;14.950;2022-10-26T07:55:52;11.90;99.90
11764;DHT22;5939;56.522;14.950;2022-10-26T07:58:18;11.90;99.90
11764;DHT22;5939;56.522;14.950;2022-10-26T08:00:48;11.90;99.90
11764;DHT22;5939;56.522;14.950;2022-10-26T08:03:15;11.90;99.90
11764;DHT22;5939;56.522;14.950;2022-10-26T08:05:40;11.90;99.90
11764;DHT22;5939;56.522;14.950;2022-10-26T08:08:06;11.80;99.90
11764;DHT22;5939;56.522;14.950;2022-10-26T08:10:31;11.80;99.90
11764;DHT22;5939;56.522;14.950;2022-10-26T08:12:57;11.90;99.90
11764;DHT22;5939;56.522;14.950;2022-10-26T08:15:23;11.90;99.90
11764;DHT22;5939;56.522;14.950;2022-10-26T08:17:48;11.90;99.90
11764;DHT22;5939;56.522;14.950;2022-10-26T08:20:14;11.90;99.90
11764;DHT22;5939;56.522;14.950;2022-10-26T08:22:39;11.90;99.90
11764;DHT22;5939;56.522;14.950;2022-10-26T08:25:05;11.90;99.90
11764;DHT22;5939;56.522;14.950;2022-10-26T08:27:31;11.90;99.90
11764;DHT22;5939;56.522;14.950;2022-10-26T08:29:56;11.90;99.90
11764;DHT22;5939;56.522;14.950;2022-10-26T08:32:22;11.90;99.90
11764;DHT22;5939;56.522;14.950;2022-10-26T08:34:48;12.00;99.90
11764;DHT22;5939;56.522;14.950;2022-10-26T08:37:13;11.90;99.90
11764;DHT22;5939;56.522;14.950;2022-10-26T08:39:39;12.00;99.90
11764;DHT22;5939;56.522;14.950;2022-10-26T08:44:44;12.00;99.90
11764;DHT22;5939;56.522;14.950;2022-10-26T08:47:19;12.00;99.90
11764;DHT22;5939;56.522;14.950;2022-10-26T08:50:02;12.00;99.90
11764;DHT22;5939;56.522;14.950;2022-10-26T08:52:37;12.00;99.90
11764;DHT22;5939;56.522;14.950;2022-10-26T08:55:13;12.00;99.90
11764;DHT22;5939;56.522;14.950;2022-10-26T08:57:40;12.00;99.90
11764;DHT22;5939;56.522;14.950;2022-10-26T09:00:11;12.00;99.90
11764;DHT22;5939;56.522;14.950;2022-10-26T09:02:39;12.00;99.90
11764;DHT22;5939;56.522;14.950;2022-10-26T09:05:16;12.00;99.90
11764;DHT22;5939;56.522;14.950;2022-10-26T09:08:12;12.10;99.90
11764;DHT22;5939;56.522;14.950;2022-10-26T09:10:57;12.10;99.90
11764;DHT22;5939;56.522;14.950;2022-10-26T09:16:38;12.10;99.90
11764;DHT22;5939;56.522;14.950;2022-10-26T09:24:43;12.10;99.90
11764;DHT22;5939;56.522;14.950;2022-10-26T09:27:18;12.10;99.90
11764;DHT22;5939;56.522;14.950;2022-10-26T09:29:46;12.20;99.90
11764;DHT22;5939;56.522;14.950;2022-10-26T09:32:28;12.10;99.90
11764;DHT22;5939;56.522;14.950;2022-10-26T09:35:02;12.20;99.90
11764;DHT22;5939;56.522;14.950;2022-10-26T09:37:36;12.20;99.90
11764;DHT22;5939;56.522;14.950;2022-10-26T09:40:30;12.20;99.90
11764;DHT22;5939;56.522;14.950;2022-10-26T09:43:19;12.20;99.90
11764;DHT22;5939;56.522;14.950;2022-10-26T09:45:50;12.20;99.90
11764;DHT22;5939;56.522;14.950;2022-10-26T09:48:33;12.20;99.90
11764;DHT22;5939;56.522;14.950;2022-10-26T09:51:01;12.20;99.90
11764;DHT22;5939;56.522;14.950;2022-10-26T09:53:27;12.20;99.90
11764;DHT22;5939;56.522;14.950;2022-10-26T09:56:04;12.20;99.90
11764;DHT22;5939;56.522;14.950;2022-10-26T09:58:54;12.20;99.90
11764;DHT22;5939;56.522;14.950;2022-10-26T10:01:32;12.30;99.90
11764;DHT22;5939;56.522;14.950;2022-10-26T10:06:39;12.30;99.90
11764;DHT22;5939;56.522;14.950;2022-10-26T10:09:09;12.30;99.90
11764;DHT22;5939;56.522;14.950;2022-10-26T10:11:38;12.30;99.90
11764;DHT22;5939;56.522;14.950;2022-10-26T10:14:12;12.30;99.90
11764;DHT22;5939;56.522;14.950;2022-10-26T10:16:39;12.30;99.90
11764;DHT22;5939;56.522;14.950;2022-10-26T10:19:24;12.30;99.90
11764;DHT22;5939;56.522;14.950;2022-10-26T10:21:52;12.40;99.90
11764;DHT22;5939;56.522;14.950;2022-10-26T10:24:32;12.40;99.90
11764;DHT22;5939;56.522;14.950;2022-10-26T10:29:40;12.40;99.90
11764;DHT22;5939;56.522;14.950;2022-10-26T10:32:10;12.40;99.90
11764;DHT22;5939;56.522;14.950;2022-10-26T10:34:38;12.40;99.90
11764;DHT22;5939;56.522;14.950;2022-10-26T10:37:04;12.40;99.90
11764;DHT22;5939;56.522;14.950;2022-10-26T10:39:36;12.40;99.90
11764;DHT22;5939;56.522;14.950;2022-10-26T10:42:04;12.40;99.90
11764;DHT22;5939;56.522;14.950;2022-10-26T10:44:31;12.50;99.90
11764;DHT22;5939;56.522;14.950;2022-10-26T10:47:02;12.50;99.90
11764;DHT22;5939;56.522;14.950;2022-10-26T10:49:29;12.50;99.90
11764;DHT22;5939;56.522;14.950;2022-10-26T10:51:55;12.50;99.90
11764;DHT22;5939;56.522;14.950;2022-10-26T10:56:59;12.50;99.90
11764;DHT22;5939;56.522;14.950;2022-10-26T11:00:08;12.50;99.90
11764;DHT22;5939;56.522;14.950;2022-10-26T11:05:52;12.50;99.90
11764;DHT22;5939;56.522;14.950;2022-10-26T11:11:46;12.50;99.90
11764;DHT22;5939;56.522;14.950;2022-10-26T11:13:54;12.60;99.90
11764;DHT22;5939;56.522;14.950;2022-10-26T11:16:28;12.60;99.90
11764;DHT22;5939;56.522;14.950;2022-10-26T11:18:58;12.60;99.90
11764;DHT22;5939;56.522;14.950;2022-10-26T11:21:29;12.60;99.90
11764;DHT22;5939;56.522;14.950;2022-10-26T11:32:49;12.60;99.90
11764;DHT22;5939;56.522;14.950;2022-10-26T11:35:31;12.60;99.90
11764;DHT22;5939;56.522;14.950;2022-10-26T11:38:20;12.60;99.90
11764;DHT22;5939;56.522;14.950;2022-10-26T11:41:16;12.70;99.90
11764;DHT22;5939;56.522;14.950;2022-10-26T11:43:48;12.70;99.90
11764;DHT22;5939;56.522;14.950;2022-10-26T11:46:35;12.70;99.90
11764;DHT22;5939;56.522;14.950;2022-10-26T11:49:23;12.70;99.90
11764;DHT22;5939;56.522;14.950;2022-10-26T11:52:07;12.70;99.90
11764;DHT22;5939;56.522;14.950;2022-10-26T11:54:45;12.70;99.90
11764;DHT22;5939;56.522;14.950;2022-10-26T11:57:14;12.70;99.90
11764;DHT22;5939;56.522;14.950;2022-10-26T12:00:15;12.70;99.90
11764;DHT22;5939;56.522;14.950;2022-10-26T12:02:45;12.80;99.90
11764;DHT22;5939;56.522;14.950;2022-10-26T12:07:46;12.80;99.90
11764;DHT22;5939;56.522;14.950;2022-10-26T12:10:23;12.80;99.90
11764;DHT22;5939;56.522;14.950;2022-10-26T12:12:56;12.80;99.90
11764;DHT22;5939;56.522;14.950;2022-10-26T12:15:32;12.80;99.90
11764;DHT22;5939;56.522;14.950;2022-10-26T12:18:14;12.80;99.90
11764;DHT22;5939;56.522;14.950;2022-10-26T12:21:01;12.80;99.90
11764;DHT22;5939;56.522;14.950;2022-10-26T12:23:32;12.80;99.90
11764;DHT22;5939;56.522;14.950;2022-10-26T12:36:47;12.80;99.90
11764;DHT22;5939;56.522;14.950;2022-10-26T12:52:41;12.90;99.90
11764;DHT22;5939;56.522;14.950;2022-10-26T13:00:13;12.90;99.90
11764;DHT22;5939;56.522;14.950;2022-10-26T13:08:05;12.90;99.90
11764;DHT22;5939;56.522;14.950;2022-10-26T13:10:32;12.90;99.90
11764;DHT22;5939;56.522;14.950;2022-10-26T13:13:03;12.90;99.90
11764;DHT22;5939;56.522;14.950;2022-10-26T13:15:59;12.90;99.90
11764;DHT22;5939;56.522;14.950;2022-10-26T13:18:25;12.90;99.90
11764;DHT22;5939;56.522;14.950;2022-10-26T13:23:29;13.00;99.90
11764;DHT22;5939;56.522;14.950;2022-10-26T13:26:11;12.90;99.90
11764;DHT22;5939;56.522;14.950;2022-10-26T13:32:05;13.00;99.90
11764;DHT22;5939;56.522;14.950;2022-10-26T13:34:13;13.00;99.90
11764;DHT22;5939;56.522;14.950;2022-10-26T13:36:50;13.00;99.90
11764;DHT22;5939;56.522;14.950;2022-10-26T13:39:20;13.00;99.90
11764;DHT22;5939;56.522;14.950;2022-10-26T13:41:50;13.00;99.90
11764;DHT22;5939;56.522;14.950;2022-10-26T13:47:08;13.00;99.90
11764;DHT22;5939;56.522;14.950;2022-10-26T13:49:39;13.00;99.90
11764;DHT22;5939;56.522;14.950;2022-10-26T13:52:26;13.00;99.90
11764;DHT22;5939;56.522;14.950;2022-10-26T13:55:01;13.00;99.90
11764;DHT22;5939;56.522;14.950;2022-10-26T13:57:35;13.00;99.90
11764;DHT22;5939;56.522;14.950;2022-10-26T14:00:08;13.00;99.90
11764;DHT22;5939;56.522;14.950;2022-10-26T14:02:41;13.00;99.90
11764;DHT22;5939;56.522;14.950;2022-10-26T14:05:10;13.00;99.90
11764;DHT22;5939;56.522;14.950;2022-10-26T14:07:51;13.00;99.90
11764;DHT22;5939;56.522;14.950;2022-10-26T14:10:39;13.00;99.90
11764;DHT22;5939;56.522;14.950;2022-10-26T14:13:13;13.00;99.90
11764;DHT22;5939;56.522;14.950;2022-10-26T14:15:43;13.00;99.90
11764;DHT22;5939;56.522;14.950;2022-10-26T14:18:24;13.00;99.90
11764;DHT22;5939;56.522;14.950;2022-10-26T14:21:05;13.00;99.90
11764;DHT22;5939;56.522;14.950;2022-10-26T14:23:36;13.00;99.90
11764;DHT22;5939;56.522;14.950;2022-10-26T14:26:27;13.00;99.90
11764;DHT22;5939;56.522;14.950;2022-10-26T14:28:59;13.00;99.90
11764;DHT22;5939;56.522;14.950;2022-10-26T14:31:28;13.00;99.90
11764;DHT22;5939;56.522;14.950;2022-10-26T14:33:55;13.00;99.90
11764;DHT22;5939;56.522;14.950;2022-10-26T14:36:35;13.00;99.90
11764;DHT22;5939;56.522;14.950;2022-10-26T14:39:19;13.10;99.90
11764;DHT22;5939;56.522;14.950;2022-10-26T14:41:49;13.10;99.90
11764;DHT22;5939;56.522;14.950;2022-10-26T14:44:19;13.00;99.90
11764;DHT22;5939;56.522;14.950;2022-10-26T14:46:45;13.00;99.90
11764;DHT22;5939;56.522;14.950;2022-10-26T14:49:23;13.00;99.90
11764;DHT22;5939;56.522;14.950;2022-10-26T14:51:56;13.10;99.90
11764;DHT22;5939;56.522;14.950;2022-10-26T14:54:25;13.00;99.90
11764;DHT22;5939;56.522;14.950;2022-10-26T14:56:51;13.00;99.90
11764;DHT22;5939;56.522;14.950;2022-10-26T14:59:25;13.00;99.90
11764;DHT22;5939;56.522;14.950;2022-10-26T15:04:39;13.00;99.90
11764;DHT22;5939;56.522;14.950;2022-10-26T15:07:15;13.00;99.90
11764;DHT22;5939;56.522;14.950;2022-10-26T15:09:49;13.00;99.90
11764;DHT22;5939;56.522;14.950;2022-10-26T15:12:28;13.00;99.90
11764;DHT22;5939;56.522;14.950;2022-10-26T15:14:55;13.00;99.90
11764;DHT22;5939;56.522;14.950;2022-10-26T15:17:30;13.00;99.90
11764;DHT22;5939;56.522;14.950;2022-10-26T15:20:01;13.00;99.90
11764;DHT22;5939;56.522;14.950;2022-10-26T15:22:27;13.00;99.90
11764;DHT22;5939;56.522;14.950;2022-10-26T15:24:56;13.00;99.90
11764;DHT22;5939;56.522;14.950;2022-10-26T15:27:23;13.00;99.90
11764;DHT22;5939;56.522;14.950;2022-10-26T15:30:17;13.00;99.90
11764;DHT22;5939;56.522;14.950;2022-10-26T15:32:36;13.00;99.90
11764;DHT22;5939;56.522;14.950;2022-10-26T15:35:12;13.00;99.90
11764;DHT22;5939;56.522;14.950;2022-10-26T15:37:39;13.00;99.90
11764;DHT22;5939;56.522;14.950;2022-10-26T15:40:05;13.00;99.90
11764;DHT22;5939;56.522;14.950;2022-10-26T15:42:31;13.00;99.90
11764;DHT22;5939;56.522;14.950;2022-10-26T15:44:59;13.00;99.90
11764;DHT22;5939;56.522;14.950;2022-10-26T15:47:32;13.00;99.90
11764;DHT22;5939;56.522;14.950;2022-10-26T15:49:58;13.00;99.90
11764;DHT22;5939;56.522;14.950;2022-10-26T15:52:24;12.90;99.90
11764;DHT22;5939;56.522;14.950;2022-10-26T15:54:50;13.00;99.90
11764;DHT22;5939;56.522;14.950;2022-10-26T15:57:15;12.90;99.90
11764;DHT22;5939;56.522;14.950;2022-10-26T15:59:41;13.00;99.90
11764;DHT22;5939;56.522;14.950;2022-10-26T16:02:16;12.90;99.90
11764;DHT22;5939;56.522;14.950;2022-10-26T16:04:42;12.90;99.90
11764;DHT22;5939;56.522;14.950;2022-10-26T16:07:14;12.90;99.90
11764;DHT22;5939;56.522;14.950;2022-10-26T16:09:41;12.90;99.90
11764;DHT22;5939;56.522;14.950;2022-10-26T16:12:10;12.90;99.90
11764;DHT22;5939;56.522;14.950;2022-10-26T16:14:36;12.90;99.90
11764;DHT22;5939;56.522;14.950;2022-10-26T16:17:02;12.90;99.90
11764;DHT22;5939;56.522;14.950;2022-10-26T16:19:27;12.90;99.90
11764;DHT22;5939;56.522;14.950;2022-10-26T16:21:53;12.90;99.90
11764;DHT22;5939;56.522;14.950;2022-10-26T16:24:19;12.90;99.90
11764;DHT22;5939;56.522;14.950;2022-10-26T16:26:45;12.90;99.90
11764;DHT22;5939;56.522;14.950;2022-10-26T16:29:10;12.90;99.90
11764;DHT22;5939;56.522;14.950;2022-10-26T16:31:36;12.90;99.90
11764;DHT22;5939;56.522;14.950;2022-10-26T16:34:02;12.90;99.90
11764;DHT22;5939;56.522;14.950;2022-10-26T16:36:27;12.90;99.90
11764;DHT22;5939;56.522;14.950;2022-10-26T16:38:53;12.90;99.90
11764;DHT22;5939;56.522;14.950;2022-10-26T16:41:19;12.90;99.90
11764;DHT22;5939;56.522;14.950;2022-10-26T16:43:45;12.90;99.90
11764;DHT22;5939;56.522;14.950;2022-10-26T16:46:18;12.80;99.90
11764;DHT22;5939;56.522;14.950;2022-10-26T16:48:46;12.80;99.90
11764;DHT22;5939;56.522;14.950;2022-10-26T16:51:20;12.80;99.90
11764;DHT22;5939;56.522;14.950;2022-10-26T16:53:47;12.80;99.90
11764;DHT22;5939;56.522;14.950;2022-10-26T16:56:20;12.80;99.90
11764;DHT22;5939;56.522;14.950;2022-10-26T16:58:46;12.80;99.90
11764;DHT22;5939;56.522;14.950;2022-10-26T17:01:13;12.80;99.90
11764;DHT22;5939;56.522;14.950;2022-10-26T17:03:43;12.80;99.90
11764;DHT22;5939;56.522;14.950;2022-10-26T17:06:08;12.80;99.90
11764;DHT22;5939;56.522;14.950;2022-10-26T17:08:35;12.80;99.90
11764;DHT22;5939;56.522;14.950;2022-10-26T17:11:11;12.80;99.90
11764;DHT22;5939;56.522;14.950;2022-10-26T17:13:38;12.70;99.90
11764;DHT22;5939;56.522;14.950;2022-10-26T17:16:19;12.70;99.90
11764;DHT22;5939;56.522;14.950;2022-10-26T17:18:46;12.70;99.90
11764;DHT22;5939;56.522;14.950;2022-10-26T17:21:13;12.70;99.90
11764;DHT22;5939;56.522;14.950;2022-10-26T17:23:39;12.70;99.90
11764;DHT22;5939;56.522;14.950;2022-10-26T17:26:07;12.70;99.90
11764;DHT22;5939;56.522;14.950;2022-10-26T17:28:34;12.70;99.90
11764;DHT22;5939;56.522;14.950;2022-10-26T17:31:11;12.70;99.90
11764;DHT22;5939;56.522;14.950;2022-10-26T17:33:38;12.70;99.90
11764;DHT22;5939;56.522;14.950;2022-10-26T17:36:05;12.70;99.90
11764;DHT22;5939;56.522;14.950;2022-10-26T17:38:36;12.60;99.90
11764;DHT22;5939;56.522;14.950;2022-10-26T17:41:04;12.70;99.90
11764;DHT22;5939;56.522;14.950;2022-10-26T17:43:32;12.70;99.90
11764;DHT22;5939;56.522;14.950;2022-10-26T17:46:03;12.60;99.90
11764;DHT22;5939;56.522;14.950;2022-10-26T17:48:30;12.60;99.90
11764;DHT22;5939;56.522;14.950;2022-10-26T17:51:01;12.60;99.90
11764;DHT22;5939;56.522;14.950;2022-10-26T17:53:27;12.60;99.90
11764;DHT22;5939;56.522;14.950;2022-10-26T17:58:30;12.60;99.90